Ride Results

New Italy (16-09-2012)
Ride distance: 80.0 km

Outcomes - New Italy (16-09-2012)
Division No. of Entries Retired / DNE Completed Withdrawn Ineligible V/O Percentage Completed
HW 11 - 9 1 1 - 81.82%
MW 26 - 19 - 1 6 73.08%
LW 11 - 10 - - 1 90.91%
JN 9 - 8 - - 1 88.89%
TR 1 - 1 - - - 100.00%
Totals 58 - 47 1 2 8 81.03%
Results - New Italy (16-09-2012)
No. Rider Horse Place Time Leg Speeds Total
Km/Hr
H/R bpm
Heavyweight
121 Tami Parnell El Jabal Brook 1 (BC) 4:16:00 20.1, 17.2 18.75 32, 42, 43 (Avg:42)
150 Greg Lyon Chingford Just Dreaming 2 4:33:00 20.9, 14.5 17.58 28, 37, 43 (Avg:40)
160 Allyson Taylor Bonnie Downs Aisha 3 4:57:00 20.6, 12.6 16.16 44, 46, 44 (Avg:45)
109 Ben Herbert Jay 4 6:26:00 16.7, 9.3 12.44 38, 43, 42 (Avg:42)
145 Phil Coleman Rainbows Reach Snowfyre 5 6:30:00 13.9, 10.6 12.31 45, 49, 52 (Avg:50)
125 John Davidson Splitters Creek Titan 6 6:38:00 12.6, 11.4 12.06 38, 42, 51 (Avg:46)
141 Maurice Gray PK Elmo 7 6:39:00 12.5, 11.4 12.03 49, 49, 49 (Avg:49)
149 Jake Gray Sandine Diesel 7 6:39:00 12.5, 11.4 12.03 38, 42, 49 (Avg:45)
159 Alan Post Woodbourne Masindi 9 7:42:00 12.2, 8.6 10.39 46, 48, 53 (Avg:50)
112 Len Derkacz Salam Zahbeel Under Novice Time L1 0:00:00 19.2 - 34, 41 (Avg:41)
154 Peter McDonald Wollumbin Aria Withdrawn L1 0:00:00 - - 44, 44 (Avg:44)
Middleweight
102 Sharon Foster Sharabel Maleka 1 4:12:00 24.9, 14.5 19.05 38, 47, 54 (Avg:50)
140 Bill Ward Alcienne Dominion 1 4:12:00 24.9, 14.5 19.05 32, 43, 46 (Avg:44)
120 Jennifer Annetts Churinga Goldfire 3 (BC) 4:16:00 20.1, 17.2 18.75 32, 40, 44 (Avg:42)
142 Sasha Laws-King Heathfield's Sheisha 4 5:07:00 18.2, 13.2 15.64 29, 33, 36 (Avg:34)
158 Judith Burton Woodbourne Ruby 5 5:10:00 19.5, 12.2 15.48 39, 40, 45 (Avg:42)
111 Derryn Nix Rowallan Rufous 6 5:18:00 16.7, 13.3 15.09 37, 43, 46 (Avg:44)
146 Kylie Reid Toxic Affair 7 6:28:00 12.4, 12.2 12.37 41, 46, 48 (Avg:47)
137 Caroline Fitzgerald Lanamere Roulette 8 6:30:00 12.7, 11.7 12.31 36, 38, 47 (Avg:42)
138 Angela Head Lanamere Dolce 8 6:30:00 12.7, 11.7 12.31 34, 39, 44 (Avg:41)
101 Christal Rizk Namac Crak A Jak 10 6:40:00 11.9, 12.0 12.00 38, 47, 51 (Avg:49)
136 Sabrina Stephens Cameo Silver Bellz 11 6:44:00 12.7, 10.9 11.88 35, 40, 44 (Avg:42)
118 Tracey Hutchinson Poets Corner Zsa Zsa 12 6:58:00 12.3, 10.5 11.48 38, 32, 36 (Avg:34)
156 Megan Prior Meadowbrook Montana 13 7:15:00 12.7, 9.3 11.03 36, 47, 51 (Avg:49)
152 Sue Bugden Elfar Saffire 14 7:16:00 12.3, 9.6 11.01 33, 37, 41 (Avg:39)
103 Maureen Feltham Fenwick Razoul 14 7:16:00 12.4, 9.5 11.01 34, 44, 48 (Avg:46)
151 Angela Georgopoulos Elfar Amigo 14 7:16:00 12.3, 9.6 11.01 41, 36, 34 (Avg:35)
135 Sonya Ruprecht Alex-Ville God Be Gift 17 7:36:00 11.9, 9.1 10.53 35, 44, 48 (Avg:46)
134 Ruth Van der Wegen Aloha Ameer 17 7:36:00 11.9, 9.1 10.53 32, 38, 46 (Avg:42)
155 Elsie Newsome Mimosa Ellira 19 7:38:00 12.3, 8.7 10.48 37, 34, 37 (Avg:35)
128 Jane Davidson Natham Park A Dynamite Lame L2 0:00:00 12.4, 11.5 - 44, 49, 60 (Avg:54)
124 Julie Depczynski Nyora Royal Moon Lame L2 0:00:00 12.2, 8.2 - 36, 43, 50 (Avg:46)
116 Garry Beard Hillbrae Bimbo Lame L1 0:00:00 12.6 - 37, 37 (Avg:37)
115 Julie Fletcher Glendinning Countess Lame L1 0:00:00 12.6 - 32, 37 (Avg:37)
100 Wayne McKinnon Dunbar Lexus Lame L1 0:00:00 11.9 - 33, 38 (Avg:38)
153 Gregory Murdoch Zastava Park Saruman Under Novice Time L1 0:00:00 21.4 - 30, 38 (Avg:38)
108 Gabriel Ramos Kevisan Park Cascade Lame L1 0:00:00 16.7 - 35, 38 (Avg:38)
Lightweight
148 Judy Battams Polly 1 (BC) 4:12:00 24.9, 14.5 19.05 36, 44, 48 (Avg:46)
139 Kim Ruehe Al Wathba Maghi 1 4:12:00 24.9, 14.5 19.05 31, 43, 49 (Avg:46)
131 Cathy Ferguson Die Kinder Summer 3 4:16:00 20.9, 16.5 18.75 39, 39, 47 (Avg:43)
110 Anne Hills Kerewong Shelfyre 4 4:22:00 24.1, 13.9 18.32 33, 41, 49 (Avg:45)
132 Di Kupsch Fortaleza Ascira 5 5:33:00 20.9, 10.2 14.41 32, 45, 45 (Avg:45)
144 Ros Ryan Cloudburst 6 6:30:00 13.9, 10.6 12.31 42, 49, 51 (Avg:50)
147 Bianca Porter Phox KEI 7 6:39:00 12.6, 11.2 12.03 44, 46, 49 (Avg:47)
122 Amanda Phillips Ra Silver Dancer 8 6:44:00 12.6, 10.9 11.88 35, 38, 45 (Avg:41)
107 Carolyn Kent Gold Nugget 9 6:48:00 12.2, 11.1 11.76 38, 49, 54 (Avg:51)
119 Libby Jones Prada Kei 10 6:58:00 12.3, 10.5 11.48 40, 49, 49 (Avg:49)
113 Leah Begley Royal Dominier Lame L1 0:00:00 24.9 - 37, 52 (Avg:52)
Junior
123 Jessica Terry Kalkadoon Alfresco 1 (BC) 5:51:00 15.7, 11.6 13.68 33, 40, 36 (Avg:38)
114 Darcy Begley Shinto 2 6:28:00 12.4, 12.2 12.37 35, 42, 46 (Avg:44)
126 Jess Fuhlbohm Natham Park A Dzhamah 3 6:38:00 12.4, 11.5 12.06 35, 39, 47 (Avg:43)
127 Sarah Huddleston Tamih 3 6:38:00 12.6, 11.4 12.06 41, 40, 44 (Avg:42)
129 Rhiannon Corney Bonnie Downs Arian 5 7:03:00 12.6, 10.0 11.35 33, 37, 42 (Avg:39)
133 Amee Jones Asalah 5 7:03:00 12.6, 10.0 11.35 39, 44, 42 (Avg:43)
106 Zac Hooper Shemaih Bey Bert 7 7:09:00 12.2, 10.0 11.19 31, 49, 46 (Avg:47)
157 Kyia-Jane Bodsworth Poets Corner Bataan 8 7:38:00 12.3, 8.7 10.48 36, 38, 49 (Avg:43)
105 Trinity Hooper Bendy Bay Lame L1 0:00:00 14.2 - 31, 42 (Avg:42)
Training
1 Diana Rowe Costa Del Sol 1 11:00:00 4.0 4.09 36, 38 (Avg:38)